Time;durP1;ratioP1;P1;durP2;ratioP2;P2;SDS_P1;SDS_P2;PMS_P1;PMS_P2;Temp;Humidity;BMP_temperature;BMP_pressure;BME280_temperature;BME280_humidity;BME280_pressure;Samples;Min_cycle;Max_cycle;Signal;HPM_P1;HPM_P2
2023/10/09 00:02:50;;;;;;;7.53;2.80;;;13.90;99.90;;;;;;4994233;28;20482;-80
2023/10/09 00:05:24;;;;;;;8.35;2.70;;;13.90;99.90;;;;;;4951621;28;20047;-80
2023/10/09 00:07:55;;;;;;;8.00;2.65;;;13.90;99.90;;;;;;4982929;28;20082;-80
2023/10/09 00:10:21;;;;;;;8.55;2.80;;;13.90;99.90;;;;;;4982869;28;20414;-80
2023/10/09 00:12:49;;;;;;;8.05;2.90;;;13.90;99.90;;;;;;5001093;28;20386;-80
2023/10/09 00:15:17;;;;;;;9.57;2.90;;;13.90;99.90;;;;;;4981568;28;20047;-80
2023/10/09 00:17:46;;;;;;;8.35;2.90;;;13.90;99.90;;;;;;4950149;28;20070;-80
2023/10/09 00:20:24;;;;;;;8.27;2.67;;;13.90;99.90;;;;;;4982776;28;20042;-80
2023/10/09 00:22:51;;;;;;;8.32;2.97;;;13.90;99.90;;;;;;4982209;28;20074;-80
2023/10/09 00:25:28;;;;;;;9.43;2.90;;;13.90;99.90;;;;;;4983506;28;20071;-80
2023/10/09 00:27:54;;;;;;;9.20;2.80;;;13.90;99.90;;;;;;4981493;28;20047;-80
2023/10/09 00:30:29;;;;;;;10.20;3.42;;;13.90;99.90;;;;;;4992699;28;20051;-80
2023/10/09 00:35:46;;;;;;;9.75;3.60;;;13.90;99.90;;;;;;4997605;28;20424;-80
2023/10/09 00:40:56;;;;;;;8.10;3.08;;;13.90;99.90;;;;;;4982095;28;20131;-80
2023/10/09 00:43:28;;;;;;;9.65;3.75;;;13.90;99.90;;;;;;4995965;28;20062;-80
2023/10/09 00:45:54;;;;;;;9.63;3.45;;;13.90;99.90;;;;;;4949378;28;20039;-80
2023/10/09 00:48:30;;;;;;;10.30;3.35;;;13.90;99.90;;;;;;4967376;28;20484;-80
2023/10/09 00:51:00;;;;;;;9.15;3.53;;;14.00;99.90;;;;;;4982266;28;20126;-80
2023/10/09 00:53:33;;;;;;;9.00;3.50;;;13.90;99.90;;;;;;4996416;28;20051;-80
2023/10/09 00:59:14;;;;;;;9.50;3.63;;;13.90;99.90;;;;;;4982146;28;19918;-80
2023/10/09 01:01:45;;;;;;;9.30;3.60;;;13.90;99.90;;;;;;4979622;28;20094;-80
2023/10/09 01:04:15;;;;;;;8.70;3.55;;;13.90;99.90;;;;;;4978809;28;20039;-80
2023/10/09 01:07:04;;;;;;;8.82;3.50;;;13.90;99.90;;;;;;4961439;28;20202;-79
2023/10/09 01:09:36;;;;;;;10.57;4.15;;;13.90;99.90;;;;;;4983493;28;20501;-80
2023/10/09 01:12:03;;;;;;;9.50;3.67;;;14.00;99.90;;;;;;4965734;28;20089;-80
2023/10/09 01:14:36;;;;;;;9.40;3.78;;;14.00;99.90;;;;;;4981065;28;20122;-80
2023/10/09 01:17:08;;;;;;;;;;;13.90;99.90;;;;;;4979835;28;20142;-80
2023/10/09 01:19:34;;;;;;;10.37;3.73;;;14.00;99.90;;;;;;4982058;28;19925;-80
2023/10/09 01:22:04;;;;;;;12.52;4.43;;;13.90;99.90;;;;;;4966354;28;20067;-80
2023/10/09 01:24:35;;;;;;;10.07;4.25;;;14.00;99.90;;;;;;4965719;28;20497;-80
2023/10/09 01:27:05;;;;;;;11.93;4.80;;;14.00;99.90;;;;;;4965044;28;20509;-80
2023/10/09 01:29:30;;;;;;;10.43;4.22;;;14.00;99.90;;;;;;4951612;28;20517;-80
2023/10/09 01:32:02;;;;;;;12.50;4.70;;;14.00;99.90;;;;;;4958612;28;20074;-80
2023/10/09 01:34:41;;;;;;;11.43;4.80;;;13.90;99.90;;;;;;4997233;28;20047;-80
2023/10/09 01:37:30;;;;;;;11.30;4.30;;;14.00;99.90;;;;;;4981775;28;20067;-80
2023/10/09 01:40:24;;;;;;;11.65;4.60;;;14.00;99.90;;;;;;4964500;28;20039;-80
2023/10/09 01:42:45;;;;;;;9.57;4.40;;;14.00;99.90;;;;;;4959916;28;20047;-80
2023/10/09 01:47:51;;;;;;;12.27;5.15;;;14.00;99.90;;;;;;4965209;28;20051;-80
2023/10/09 01:50:24;;;;;;;13.60;5.45;;;14.00;99.90;;;;;;4963847;28;20561;-80
2023/10/09 01:52:53;;;;;;;;;;;14.00;99.90;;;;;;4979760;28;20035;-80
2023/10/09 01:55:29;;;;;;;10.97;4.53;;;14.00;99.90;;;;;;4980053;28;20373;-80
2023/10/09 01:58:05;;;;;;;11.02;5.05;;;14.00;99.90;;;;;;4952002;28;20087;-80
2023/10/09 02:00:43;;;;;;;11.52;5.03;;;14.00;99.90;;;;;;4996203;28;20073;-80
2023/10/09 02:03:12;;;;;;;12.10;4.93;;;14.00;99.90;;;;;;4946726;28;20151;-80
2023/10/09 02:05:39;;;;;;;12.75;5.60;;;14.00;99.90;;;;;;4980983;28;20513;-79
2023/10/09 02:08:05;;;;;;;12.90;5.40;;;14.00;99.90;;;;;;4963099;28;20089;-80
2023/10/09 02:10:32;;;;;;;11.98;5.18;;;14.00;99.90;;;;;;4979575;28;20109;-80
2023/10/09 02:13:16;;;;;;;13.82;5.47;;;14.00;99.90;;;;;;4966501;28;20193;-80
2023/10/09 02:18:19;;;;;;;13.77;5.78;;;14.00;99.90;;;;;;4979671;28;20055;-80
2023/10/09 02:20:45;;;;;;;11.93;5.75;;;14.00;99.90;;;;;;4962980;28;20394;-80
2023/10/09 02:23:24;;;;;;;12.80;5.47;;;14.00;99.90;;;;;;4981185;28;20566;-80
2023/10/09 02:25:53;;;;;;;14.07;6.10;;;14.00;99.90;;;;;;4980488;28;20047;-80
2023/10/09 02:28:19;;;;;;;12.63;5.20;;;14.00;99.90;;;;;;4980873;28;20083;-80
2023/10/09 02:30:48;;;;;;;13.20;5.80;;;14.00;99.90;;;;;;4963130;28;20089;-80
2023/10/09 02:33:30;;;;;;;13.30;5.72;;;14.00;99.90;;;;;;4963578;28;20043;-80
2023/10/09 02:36:05;;;;;;;13.82;6.50;;;14.00;99.90;;;;;;4948934;29;20046;-80
2023/10/09 02:38:35;;;;;;;12.90;6.50;;;14.00;99.90;;;;;;4963874;28;20777;-80
2023/10/09 02:43:55;;;;;;;14.27;7.05;;;14.00;99.90;;;;;;4978165;28;20047;-80
2023/10/09 02:46:28;;;;;;;13.07;6.63;;;14.00;99.90;;;;;;4949005;28;20322;-80
2023/10/09 02:48:56;;;;;;;14.93;6.85;;;14.00;99.90;;;;;;4963907;28;20532;-80
2023/10/09 02:53:57;;;;;;;13.68;7.25;;;14.00;99.90;;;;;;4979426;28;20079;-80
2023/10/09 02:56:47;;;;;;;13.63;6.55;;;14.00;99.90;;;;;;4962224;28;20044;-80
2023/10/09 02:59:13;;;;;;;14.30;6.82;;;14.00;99.90;;;;;;4984616;28;20039;-80
2023/10/09 03:01:40;;;;;;;15.27;7.15;;;14.00;99.90;;;;;;4952125;28;20036;-80
2023/10/09 03:04:06;;;;;;;16.35;7.35;;;14.00;99.90;;;;;;4980924;28;20394;-79
2023/10/09 03:06:34;;;;;;;16.45;7.47;;;13.90;99.90;;;;;;4984200;28;20047;-80
2023/10/09 03:09:01;;;;;;;16.08;7.70;;;13.90;99.90;;;;;;4984985;28;20094;-80
2023/10/09 03:11:27;;;;;;;14.10;7.47;;;13.90;99.90;;;;;;4983841;28;20493;-80
2023/10/09 03:13:53;;;;;;;14.95;7.60;;;13.90;99.90;;;;;;4968252;28;20039;-80
2023/10/09 03:16:19;;;;;;;16.05;7.55;;;14.00;99.90;;;;;;4965541;28;20039;-80
2023/10/09 03:18:51;;;;;;;14.65;7.38;;;14.00;99.90;;;;;;4955655;28;20053;-80
2023/10/09 03:21:17;;;;;;;14.60;7.90;;;14.00;99.90;;;;;;4983643;28;20567;-80
2023/10/09 03:23:50;;;;;;;13.25;6.43;;;14.00;99.90;;;;;;4968206;28;20128;-80
2023/10/09 03:26:18;;;;;;;;;;;14.00;99.90;;;;;;4967773;28;20046;-80
2023/10/09 03:28:46;;;;;;;12.77;6.68;;;14.00;99.90;;;;;;4998301;28;19957;-80
2023/10/09 03:31:12;;;;;;;16.30;7.68;;;14.00;99.90;;;;;;4971486;28;20043;-80
2023/10/09 03:33:38;;;;;;;15.07;7.78;;;13.90;99.90;;;;;;4968656;28;20046;-80
2023/10/09 03:36:09;;;;;;;14.40;6.85;;;14.00;99.90;;;;;;4981764;28;20529;-80
2023/10/09 03:38:38;;;;;;;14.88;7.65;;;14.00;99.90;;;;;;5000314;28;20043;-80
2023/10/09 03:41:07;;;;;;;15.95;7.60;;;14.00;99.90;;;;;;4999991;28;20038;-80
2023/10/09 03:43:41;;;;;;;16.52;8.27;;;14.10;99.90;;;;;;4967777;28;20039;-80
2023/10/09 03:46:32;;;;;;;14.82;8.38;;;14.10;99.90;;;;;;4949899;28;20066;-80
2023/10/09 03:49:02;;;;;;;15.43;9.10;;;14.10;99.90;;;;;;4962859;28;20063;-80
2023/10/09 03:51:29;;;;;;;16.35;9.18;;;14.20;99.90;;;;;;4983410;28;20125;-80
2023/10/09 03:53:55;;;;;;;16.50;9.15;;;14.20;99.90;;;;;;4968977;28;20043;-80
2023/10/09 03:56:21;;;;;;;15.02;8.52;;;14.30;99.90;;;;;;4994019;28;20274;-80
2023/10/09 03:58:49;;;;;;;17.58;8.38;;;14.30;99.90;;;;;;4966973;28;20049;-80
2023/10/09 04:01:29;;;;;;;17.77;8.88;;;14.30;99.90;;;;;;4983140;28;20126;-80
2023/10/09 04:04:03;;;;;;;16.88;8.93;;;14.30;99.90;;;;;;4956103;28;20043;-80
2023/10/09 04:06:32;;;;;;;17.70;9.52;;;14.40;99.90;;;;;;4979458;28;20047;-80
2023/10/09 04:09:27;;;;;;;17.73;9.00;;;14.40;99.90;;;;;;4980470;28;20497;-80
2023/10/09 04:12:30;;;;;;;18.10;9.88;;;14.40;99.90;;;;;;4983204;28;20047;-80
2023/10/09 04:15:05;;;;;;;17.77;8.95;;;14.50;99.90;;;;;;4951637;28;20039;-80
2023/10/09 04:17:34;;;;;;;16.40;9.50;;;14.50;99.90;;;;;;4949375;28;20513;-80
2023/10/09 04:22:50;;;;;;;17.73;8.85;;;14.50;99.90;;;;;;4976950;28;20043;-80
2023/10/09 04:25:27;;;;;;;17.85;10.65;;;14.50;99.90;;;;;;4989433;28;20556;-80
2023/10/09 04:28:33;;;;;;;17.83;10.20;;;14.60;99.90;;;;;;4966042;28;20045;-81
2023/10/09 04:30:55;;;;;;;17.40;9.65;;;14.60;99.90;;;;;;4975864;28;20126;-81
2023/10/09 04:36:16;;;;;;;17.65;10.02;;;14.60;99.90;;;;;;4981007;28;20425;-81
2023/10/09 04:38:55;;;;;;;16.80;10.05;;;14.60;99.90;;;;;;4950911;28;20046;-82
2023/10/09 04:41:27;;;;;;;17.67;9.48;;;14.70;99.90;;;;;;4946068;28;20485;-81
2023/10/09 04:49:27;;;;;;;16.38;10.15;;;14.70;99.90;;;;;;4982039;28;20150;-82
2023/10/09 04:52:09;;;;;;;17.27;9.45;;;14.70;99.90;;;;;;4963741;28;20098;-82
2023/10/09 04:55:03;;;;;;;16.10;9.18;;;14.80;99.90;;;;;;4977330;28;20109;-82
2023/10/09 04:57:26;;;;;;;17.13;9.00;;;14.80;99.90;;;;;;4948565;28;20087;-82
2023/10/09 04:59:53;;;;;;;16.27;9.05;;;14.80;99.90;;;;;;4981189;28;20067;-82
2023/10/09 05:02:19;;;;;;;18.10;9.93;;;14.90;99.90;;;;;;4962097;28;20035;-82
2023/10/09 05:04:51;;;;;;;16.60;9.82;;;14.90;99.90;;;;;;4965349;28;20529;-83
2023/10/09 05:07:22;;;;;;;19.10;9.15;;;14.90;99.90;;;;;;4976767;28;20046;-82
2023/10/09 05:10:14;;;;;;;18.17;8.82;;;15.00;99.90;;;;;;4999581;28;20043;-82
2023/10/09 05:12:46;;;;;;;15.02;8.23;;;15.00;99.90;;;;;;4974571;28;20406;-82
2023/10/09 05:15:13;;;;;;;16.85;9.10;;;15.10;99.90;;;;;;4963237;28;20051;-83
2023/10/09 05:17:39;;;;;;;14.02;7.70;;;15.10;99.90;;;;;;4982958;28;20051;-82
2023/10/09 05:22:59;;;;;;;16.05;8.35;;;15.20;99.90;;;;;;4982100;28;20282;-83
2023/10/09 05:28:31;;;;;;;15.75;7.70;;;15.30;99.90;;;;;;4974946;28;20102;-83
2023/10/09 05:31:09;;;;;;;16.73;7.90;;;15.30;99.90;;;;;;4982567;28;20122;-83
2023/10/09 05:33:38;;;;;;;14.98;7.35;;;15.30;99.90;;;;;;4978901;28;20133;-83
2023/10/09 05:36:31;;;;;;;15.48;8.38;;;15.30;99.90;;;;;;4949371;28;20043;-83
2023/10/09 05:39:18;;;;;;;15.10;7.72;;;15.30;99.90;;;;;;4964264;28;20043;-83
2023/10/09 05:41:52;;;;;;;14.20;7.53;;;15.30;99.90;;;;;;4983262;28;20039;-83
2023/10/09 06:04:12;;;;;;;12.15;6.78;;;15.50;99.90;;;;;;4981034;28;20043;-83
2023/10/09 06:06:04;;;;;;;12.20;6.07;;;15.50;99.90;;;;;;4982414;28;20101;-83
2023/10/09 06:24:23;;;;;;;11.45;4.60;;;15.60;99.90;;;;;;4981538;28;20047;-83
2023/10/09 06:34:52;;;;;;;11.10;4.47;;;15.70;99.90;;;;;;4981324;28;20043;-83
2023/10/09 06:45:16;;;;;;;13.45;4.53;;;15.80;99.90;;;;;;4982389;28;20083;-83
2023/10/09 06:47:55;;;;;;;10.10;4.03;;;15.70;99.90;;;;;;4949856;28;20592;-83
2023/10/09 06:50:25;;;;;;;13.50;4.63;;;15.80;99.90;;;;;;4982746;28;20052;-83
2023/10/09 06:55:48;;;;;;;11.43;4.05;;;15.80;99.90;;;;;;4981824;28;20134;-83
2023/10/09 06:58:25;;;;;;;10.32;4.10;;;15.80;99.90;;;;;;4963875;28;20122;-83
2023/10/09 07:00:54;;;;;;;10.25;4.25;;;15.80;99.90;;;;;;4979328;28;20031;-83
2023/10/09 07:03:29;;;;;;;11.70;4.78;;;15.80;99.90;;;;;;4950078;28;20429;-82
2023/10/09 07:06:24;;;;;;;11.90;4.57;;;15.80;99.90;;;;;;4964516;28;20481;-82
2023/10/09 07:17:15;;;;;;;11.50;4.82;;;15.80;99.90;;;;;;4980915;28;20047;-82
2023/10/09 07:25:14;;;;;;;13.32;4.38;;;15.90;99.90;;;;;;4965818;28;20458;-82
2023/10/09 07:27:59;;;;;;;12.38;5.10;;;15.90;99.90;;;;;;4948562;28;20043;-82
2023/10/09 07:38:20;;;;;;;12.98;4.47;;;15.90;99.90;;;;;;4951988;29;20071;-82
2023/10/09 07:43:39;;;;;;;11.07;4.38;;;15.90;99.90;;;;;;4985058;28;20043;-82
2023/10/09 07:46:30;;;;;;;13.43;5.07;;;15.90;99.90;;;;;;4984943;28;20043;-82
2023/10/09 07:49:00;;;;;;;9.60;4.22;;;16.00;99.90;;;;;;4950798;28;20059;-82
2023/10/09 07:51:32;;;;;;;12.15;4.93;;;16.00;99.90;;;;;;4975914;28;20083;-82
2023/10/09 07:54:08;;;;;;;11.05;4.38;;;16.00;99.90;;;;;;4967078;28;20199;-82
2023/10/09 07:56:41;;;;;;;13.00;4.75;;;16.00;99.90;;;;;;4951926;28;20126;-82
2023/10/09 07:59:11;;;;;;;10.13;4.75;;;16.00;99.90;;;;;;4956494;28;20050;-83
2023/10/09 08:01:54;;;;;;;11.23;4.13;;;16.00;99.90;;;;;;4966636;28;20509;-82
2023/10/09 08:07:09;;;;;;;9.95;4.18;;;16.10;99.90;;;;;;4984624;28;20055;-82
2023/10/09 08:12:57;;;;;;;10.23;3.97;;;16.10;99.90;;;;;;4960218;28;20051;-82
2023/10/09 08:15:34;;;;;;;10.60;4.35;;;16.10;99.90;;;;;;4967329;28;20114;-82
2023/10/09 08:18:27;;;;;;;9.95;3.97;;;16.10;99.90;;;;;;4967619;28;20046;-81
2023/10/09 08:23:29;;;;;;;11.38;4.20;;;16.10;99.90;;;;;;5000835;28;20397;-82
2023/10/09 08:26:12;;;;;;;11.45;4.10;;;16.10;99.90;;;;;;4984295;28;20048;-82
2023/10/09 08:28:45;;;;;;;10.23;4.00;;;16.10;99.90;;;;;;4967103;28;20098;-82
2023/10/09 08:31:19;;;;;;;10.02;4.28;;;16.10;99.90;;;;;;4964787;28;20043;-82
2023/10/09 08:33:57;;;;;;;11.93;4.22;;;16.10;99.90;;;;;;4951150;29;20049;-82
2023/10/09 08:36:36;;;;;;;10.77;4.00;;;16.20;99.90;;;;;;4967320;28;20509;-82
2023/10/09 08:39:17;;;;;;;11.07;4.22;;;16.10;99.90;;;;;;4983972;28;20044;-82
2023/10/09 08:41:44;;;;;;;11.38;3.70;;;16.10;99.90;;;;;;4966656;28;20035;-82
2023/10/09 08:44:14;;;;;;;10.70;4.07;;;16.20;99.90;;;;;;4982028;28;20042;-82
2023/10/09 08:46:42;;;;;;;10.55;4.00;;;16.20;99.90;;;;;;4999971;28;20051;-82
2023/10/09 08:49:10;;;;;;;11.02;4.05;;;16.20;99.90;;;;;;4967732;28;20063;-82
2023/10/09 08:51:37;;;;;;;11.35;4.68;;;16.30;99.90;;;;;;4951635;28;20051;-81
2023/10/09 08:54:04;;;;;;;10.50;3.85;;;16.20;99.90;;;;;;4982167;28;20081;-82
2023/10/09 08:56:30;;;;;;;11.30;4.68;;;16.20;99.90;;;;;;4982081;28;20561;-82
2023/10/09 08:58:59;;;;;;;10.55;4.82;;;16.20;99.90;;;;;;4999760;28;20039;-81
2023/10/09 09:01:25;;;;;;;10.52;4.03;;;16.30;99.90;;;;;;4999993;28;20043;-82
2023/10/09 09:03:55;;;;;;;10.10;4.13;;;16.30;99.90;;;;;;4998265;28;20079;-82
2023/10/09 09:06:23;;;;;;;11.60;3.97;;;16.40;99.90;;;;;;4998408;28;20085;-81
2023/10/09 09:08:54;;;;;;;10.80;4.07;;;16.40;99.90;;;;;;4983642;28;20540;-81
2023/10/09 09:11:24;;;;;;;11.38;4.35;;;16.40;99.90;;;;;;4966737;28;20075;-81
2023/10/09 09:14:05;;;;;;;10.50;4.10;;;16.40;99.90;;;;;;4967408;28;20051;-81
2023/10/09 09:16:35;;;;;;;11.85;4.70;;;16.50;99.90;;;;;;4981278;28;20047;-81
2023/10/09 09:21:54;;;;;;;11.70;4.43;;;16.50;99.90;;;;;;4981748;28;20043;-82
2023/10/09 09:27:00;;;;;;;10.93;4.03;;;16.50;99.90;;;;;;4982183;28;20051;-81
2023/10/09 09:29:38;;;;;;;9.57;3.83;;;16.60;99.90;;;;;;4934860;29;20078;-82
2023/10/09 09:32:38;;;;;;;10.07;4.07;;;16.60;99.90;;;;;;4981934;28;20652;-81
2023/10/09 09:35:17;;;;;;;10.07;3.47;;;16.60;99.90;;;;;;4965665;28;20050;-82
2023/10/09 09:37:53;;;;;;;9.93;3.83;;;16.50;99.90;;;;;;4965533;28;20062;-82
2023/10/09 09:40:29;;;;;;;8.85;3.40;;;16.60;99.90;;;;;;4966596;28;20046;-82
2023/10/09 09:43:04;;;;;;;8.57;3.42;;;16.60;99.90;;;;;;4949233;29;20170;-82
2023/10/09 09:45:35;;;;;;;10.52;3.63;;;16.60;99.90;;;;;;4981501;28;20050;-82
2023/10/09 09:48:06;;;;;;;10.27;3.55;;;16.70;99.90;;;;;;4981490;28;20391;-81
2023/10/09 09:50:43;;;;;;;9.82;3.70;;;16.70;99.90;;;;;;4982840;28;20051;-82
2023/10/09 09:53:11;;;;;;;10.77;3.42;;;16.70;99.90;;;;;;4966241;28;20043;-81
2023/10/09 09:55:41;;;;;;;10.52;3.90;;;16.70;99.90;;;;;;4949057;28;20526;-82
2023/10/09 09:58:18;;;;;;;9.18;3.72;;;16.70;99.90;;;;;;4976902;28;20408;-82
2023/10/09 10:00:45;;;;;;;10.70;3.90;;;16.80;99.90;;;;;;4966712;28;20036;-81
2023/10/09 10:03:43;;;;;;;10.75;3.60;;;16.80;99.90;;;;;;4982818;28;20050;-81
2023/10/09 10:06:12;;;;;;;9.38;3.70;;;16.80;99.90;;;;;;4965120;28;20475;-81
2023/10/09 10:08:39;;;;;;;8.25;3.53;;;16.80;99.90;;;;;;4948976;28;20039;-82
2023/10/09 10:11:05;;;;;;;9.75;3.70;;;16.80;99.90;;;;;;4982676;28;20142;-82
2023/10/09 10:13:40;;;;;;;8.45;3.00;;;16.70;99.90;;;;;;4950295;28;20468;-81
2023/10/09 10:16:34;;;;;;;11.02;3.58;;;16.70;99.90;;;;;;4982118;28;20039;-81
2023/10/09 10:18:59;;;;;;;10.10;3.72;;;16.70;99.90;;;;;;4948098;28;20046;-81
2023/10/09 10:24:09;;;;;;;9.20;3.15;;;16.60;99.90;;;;;;4950313;29;20123;-81
2023/10/09 10:26:36;;;;;;;10.70;2.97;;;16.70;99.90;;;;;;4981860;28;20058;-81
2023/10/09 10:29:22;;;;;;;11.10;3.28;;;16.60;99.90;;;;;;4980558;28;20042;-81
2023/10/09 10:32:08;;;;;;;10.30;3.22;;;16.70;99.90;;;;;;4978509;28;20119;-80
2023/10/09 10:34:58;;;;;;;9.90;3.30;;;16.70;99.90;;;;;;4966280;28;20080;-81
2023/10/09 10:37:43;;;;;;;11.68;3.30;;;16.70;99.90;;;;;;4965828;28;20051;-81
2023/10/09 10:40:15;;;;;;;9.60;3.10;;;16.80;99.90;;;;;;4963373;28;20429;-81
2023/10/09 10:45:35;;;;;;;9.07;2.95;;;16.80;99.90;;;;;;4947428;29;20043;-80
2023/10/09 10:48:09;;;;;;;8.35;3.05;;;16.80;99.90;;;;;;4981820;28;20039;-81
2023/10/09 10:50:35;;;;;;;11.82;3.47;;;16.80;99.90;;;;;;4980652;28;20047;-81
2023/10/09 10:53:34;;;;;;;12.57;3.83;;;16.90;99.90;;;;;;4982572;28;20134;-79
2023/10/09 10:56:34;;;;;;;10.43;3.30;;;16.90;99.90;;;;;;4980981;28;20051;-78
2023/10/09 11:07:24;;;;;;;10.00;3.25;;;16.80;99.90;;;;;;4981374;28;20142;-82
2023/10/09 11:18:45;;;;;;;8.00;2.70;;;16.70;99.90;;;;;;4974591;28;20432;-82
2023/10/09 11:24:27;;;;;;;11.00;3.15;;;16.70;99.90;;;;;;4970016;28;20043;-82
2023/10/09 11:26:28;;;;;;;9.52;2.75;;;16.60;99.90;;;;;;4953999;28;20127;-82
2023/10/09 11:32:09;;;;;;;9.13;3.05;;;16.60;99.90;;;;;;4983700;28;20544;-83
2023/10/09 11:34:37;;;;;;;8.23;2.50;;;16.80;99.90;;;;;;4969141;28;20047;-82
2023/10/09 11:37:13;;;;;;;8.27;2.70;;;16.70;99.90;;;;;;4984154;28;20049;-82
2023/10/09 11:39:51;;;;;;;9.40;2.90;;;16.70;99.90;;;;;;4985585;28;20050;-81
2023/10/09 11:45:04;;;;;;;10.07;2.90;;;16.80;99.90;;;;;;4985360;28;20133;-81
2023/10/09 11:47:54;;;;;;;8.30;3.10;;;16.90;99.90;;;;;;4968426;28;20097;-82
2023/10/09 11:50:30;;;;;;;7.97;2.78;;;16.90;99.90;;;;;;4968726;28;20086;-81
2023/10/09 11:53:08;;;;;;;7.82;2.92;;;17.00;99.90;;;;;;4999897;28;20051;-81
2023/10/09 11:55:37;;;;;;;9.57;3.00;;;17.00;99.90;;;;;;4985137;28;20047;-81
2023/10/09 11:58:04;;;;;;;8.60;2.50;;;17.10;99.90;;;;;;4964022;28;20047;-82
2023/10/09 12:00:44;;;;;;;7.95;2.50;;;17.10;99.90;;;;;;4968942;28;20134;-81
2023/10/09 12:03:10;;;;;;;9.07;2.45;;;17.10;99.90;;;;;;4967558;28;20115;-81
2023/10/09 12:05:36;;;;;;;8.50;2.38;;;17.10;99.90;;;;;;4969005;28;20118;-81
2023/10/09 12:08:08;;;;;;;7.68;2.42;;;17.10;99.90;;;;;;4983679;28;20043;-80
2023/10/09 12:10:38;;;;;;;5.83;2.20;;;17.10;99.90;;;;;;4968062;28;20053;-80
2023/10/09 12:13:05;;;;;;;8.45;2.38;;;17.00;99.90;;;;;;4982878;28;20058;-81
2023/10/09 12:15:38;;;;;;;7.03;2.45;;;17.00;99.90;;;;;;4985002;28;20058;-81
2023/10/09 12:18:08;;;;;;;6.72;2.40;;;17.00;99.90;;;;;;4967721;28;20521;-81
2023/10/09 12:20:35;;;;;;;7.78;2.30;;;17.00;99.90;;;;;;4952509;29;20501;-81
2023/10/09 12:23:06;;;;;;;7.68;2.47;;;17.00;99.90;;;;;;4982224;28;20039;-81
2023/10/09 12:25:33;;;;;;;6.75;2.25;;;16.90;99.90;;;;;;4984599;28;20569;-81
2023/10/09 12:28:03;;;;;;;10.20;2.63;;;16.90;99.90;;;;;;4984034;28;20075;-81
2023/10/09 12:30:39;;;;;;;8.15;2.22;;;16.90;99.90;;;;;;4999177;28;20101;-82
2023/10/09 12:33:07;;;;;;;7.50;2.35;;;17.00;99.90;;;;;;4983598;28;20047;-81
2023/10/09 12:35:37;;;;;;;9.30;2.70;;;17.00;99.90;;;;;;5000820;28;20044;-80
2023/10/09 12:38:08;;;;;;;8.43;2.47;;;17.10;99.90;;;;;;4947747;28;20047;-81
2023/10/09 12:40:34;;;;;;;6.97;2.33;;;17.10;99.90;;;;;;4982891;28;20035;-81
2023/10/09 12:43:00;;;;;;;7.15;2.47;;;17.10;99.90;;;;;;5000185;28;20039;-80
2023/10/09 12:45:26;;;;;;;9.55;2.40;;;17.20;99.90;;;;;;4950090;29;20039;-80
2023/10/09 12:47:59;;;;;;;8.82;2.70;;;17.20;99.90;;;;;;4967965;28;20190;-81
2023/10/09 12:50:29;;;;;;;10.48;3.13;;;17.20;99.90;;;;;;4967103;28;20567;-81
2023/10/09 12:53:02;;;;;;;7.72;2.45;;;17.10;99.90;;;;;;4983550;28;20047;-81
2023/10/09 12:55:34;;;;;;;9.90;2.42;;;17.10;99.90;;;;;;4995848;28;20465;-80
2023/10/09 12:58:06;;;;;;;8.68;2.72;;;17.10;99.90;;;;;;4998056;28;20043;-80
2023/10/09 13:00:33;;;;;;;9.18;2.70;;;17.10;99.90;;;;;;4995107;28;20466;-81
2023/10/09 13:03:13;;;;;;;7.63;2.40;;;17.00;99.90;;;;;;4999925;28;20093;-81
2023/10/09 13:05:51;;;;;;;9.18;2.50;;;17.00;99.90;;;;;;4983727;28;20050;-81
2023/10/09 13:08:21;;;;;;;9.18;2.50;;;17.00;99.90;;;;;;4983742;28;20637;-81
2023/10/09 13:11:00;;;;;;;7.60;2.55;;;17.00;99.90;;;;;;4978659;28;20286;-81
2023/10/09 13:13:39;;;;;;;7.88;2.45;;;17.00;99.90;;;;;;4967707;28;20043;-80
2023/10/09 13:16:14;;;;;;;8.32;2.40;;;17.00;99.90;;;;;;4967266;28;20046;-81
2023/10/09 13:18:41;;;;;;;8.75;2.75;;;17.00;99.90;;;;;;4967755;28;20536;-81
2023/10/09 13:21:07;;;;;;;6.57;2.50;;;17.00;99.90;;;;;;4962891;28;20034;-81
2023/10/09 13:23:39;;;;;;;7.18;2.22;;;16.90;99.90;;;;;;4951713;29;20591;-81
2023/10/09 13:26:17;;;;;;;7.15;2.20;;;16.90;99.90;;;;;;4983646;28;20043;-81
2023/10/09 13:28:50;;;;;;;7.18;2.28;;;16.90;99.90;;;;;;4992366;28;20051;-81
2023/10/09 13:31:17;;;;;;;;;;;16.90;99.90;;;;;;4981948;28;20038;-81
2023/10/09 13:33:43;;;;;;;8.88;2.35;;;16.90;99.90;;;;;;4979230;28;19933;-80
2023/10/09 13:36:17;;;;;;;8.43;2.67;;;16.80;99.90;;;;;;4966905;28;20055;-81
2023/10/09 13:38:46;;;;;;;7.75;2.67;;;16.80;99.90;;;;;;4967336;28;20078;-80
2023/10/09 13:41:12;;;;;;;8.98;2.53;;;16.80;99.90;;;;;;4979656;28;20035;-80
2023/10/09 13:43:42;;;;;;;8.68;2.60;;;16.80;99.90;;;;;;4980827;28;20067;-80
2023/10/09 13:46:11;;;;;;;8.73;2.38;;;16.80;99.90;;;;;;4966518;28;20405;-81
2023/10/09 13:48:44;;;;;;;11.20;2.65;;;16.80;99.90;;;;;;4966691;28;20055;-80
2023/10/09 13:51:17;;;;;;;6.68;2.10;;;16.80;99.90;;;;;;4966977;28;20199;-81
2023/10/09 13:53:46;;;;;;;7.70;2.28;;;16.80;99.90;;;;;;4978791;28;20265;-80
2023/10/09 13:56:21;;;;;;;7.03;2.30;;;16.80;99.90;;;;;;4947237;28;20043;-81
2023/10/09 13:58:51;;;;;;;6.55;2.20;;;16.80;99.90;;;;;;4965093;28;20047;-80
2023/10/09 14:01:27;;;;;;;7.75;2.47;;;16.80;99.90;;;;;;4950828;28;20050;-81
2023/10/09 14:03:57;;;;;;;8.50;2.33;;;16.80;99.90;;;;;;4982913;28;20180;-81
2023/10/09 14:06:30;;;;;;;7.20;2.25;;;16.80;99.90;;;;;;4962716;28;20472;-81
2023/10/09 14:08:58;;;;;;;8.15;2.30;;;16.80;99.90;;;;;;4999355;28;20430;-81
2023/10/09 14:11:25;;;;;;;9.32;2.28;;;16.80;99.90;;;;;;4980802;28;20501;-81
2023/10/09 14:13:54;;;;;;;6.97;2.28;;;16.70;99.90;;;;;;4980572;28;20054;-81
2023/10/09 14:16:27;;;;;;;10.32;2.53;;;16.80;99.90;;;;;;4981609;28;20051;-81
2023/10/09 14:18:57;;;;;;;8.05;2.38;;;16.70;99.90;;;;;;4979307;28;20042;-81
2023/10/09 14:21:25;;;;;;;6.97;2.10;;;16.70;99.90;;;;;;4950412;29;20552;-81
2023/10/09 14:23:56;;;;;;;5.30;1.90;;;16.70;99.90;;;;;;4966980;28;20043;-81
2023/10/09 14:26:25;;;;;;;6.10;1.98;;;16.70;99.90;;;;;;4948944;28;20064;-82
2023/10/09 14:28:52;;;;;;;6.13;1.90;;;16.70;99.90;;;;;;4971987;28;20055;-82
2023/10/09 14:31:26;;;;;;;9.15;2.33;;;16.70;99.90;;;;;;4982395;28;20532;-81
2023/10/09 14:33:52;;;;;;;7.93;2.22;;;16.70;99.90;;;;;;4950115;29;20425;-81
2023/10/09 14:36:18;;;;;;;6.90;2.22;;;16.70;99.90;;;;;;4966173;28;20098;-81
2023/10/09 14:38:46;;;;;;;7.28;1.95;;;16.80;99.90;;;;;;4974383;28;20556;-80
2023/10/09 14:41:12;;;;;;;6.20;2.50;;;16.80;99.90;;;;;;4974756;28;20050;-80
2023/10/09 14:43:39;;;;;;;6.95;1.90;;;16.80;99.90;;;;;;4966148;28;20518;-80
2023/10/09 14:46:10;;;;;;;7.80;2.10;;;16.80;99.90;;;;;;4986180;28;20409;-81
2023/10/09 14:48:41;;;;;;;7.25;2.08;;;16.80;99.90;;;;;;4985753;28;20110;-81
2023/10/09 14:51:10;;;;;;;6.78;2.00;;;16.80;99.90;;;;;;4966493;28;21530;-81
2023/10/09 14:53:36;;;;;;;6.18;1.95;;;16.80;99.90;;;;;;4970276;28;20045;-81
2023/10/09 14:56:08;;;;;;;5.65;1.83;;;16.80;99.90;;;;;;4986074;28;20123;-81
2023/10/09 14:58:38;;;;;;;5.97;1.90;;;16.80;99.90;;;;;;4985306;28;20043;-81
2023/10/09 15:01:12;;;;;;;6.85;2.20;;;16.80;99.90;;;;;;4968221;28;20122;-81
2023/10/09 15:03:38;;;;;;;7.10;1.98;;;16.80;99.90;;;;;;4985181;28;20043;-81
2023/10/09 15:06:08;;;;;;;7.57;2.25;;;16.80;99.90;;;;;;4969691;28;20524;-81
2023/10/09 15:08:35;;;;;;;6.95;1.65;;;16.80;99.90;;;;;;4969915;28;20114;-82
2023/10/09 15:11:00;;;;;;;6.40;1.92;;;16.70;99.90;;;;;;4984230;28;20517;-81
2023/10/09 15:13:28;;;;;;;6.53;2.00;;;16.70;99.90;;;;;;4983564;28;20290;-81
2023/10/09 15:15:55;;;;;;;4.93;1.80;;;16.70;99.90;;;;;;4985660;28;20039;-81
2023/10/09 15:18:21;;;;;;;7.03;1.70;;;16.70;99.90;;;;;;4985954;28;20413;-81
2023/10/09 15:20:48;;;;;;;7.30;1.98;;;16.70;99.90;;;;;;4968943;28;20036;-81
2023/10/09 15:23:14;;;;;;;6.60;1.85;;;16.70;99.90;;;;;;4968127;28;20172;-81
2023/10/09 15:25:44;;;;;;;4.32;1.60;;;16.70;99.90;;;;;;4953763;28;20060;-81
2023/10/09 15:28:11;;;;;;;5.60;1.70;;;16.70;99.90;;;;;;4966587;28;20385;-80
2023/10/09 15:30:37;;;;;;;6.30;1.70;;;16.70;99.90;;;;;;4984806;28;20058;-81
2023/10/09 15:33:07;;;;;;;6.85;1.70;;;16.70;99.90;;;;;;4949927;28;20130;-81
2023/10/09 15:35:33;;;;;;;6.18;1.90;;;16.70;99.90;;;;;;4985366;28;20051;-81
2023/10/09 15:38:03;;;;;;;6.45;2.10;;;16.70;99.90;;;;;;4969193;28;20043;-81
2023/10/09 15:40:34;;;;;;;7.18;1.90;;;16.60;99.90;;;;;;4969479;28;20131;-81
2023/10/09 15:43:00;;;;;;;6.85;1.73;;;16.60;99.90;;;;;;4984496;28;20043;-81
2023/10/09 15:45:28;;;;;;;6.75;2.10;;;16.60;99.90;;;;;;4932440;29;20565;-82
2023/10/09 15:47:54;;;;;;;4.40;1.50;;;16.60;99.90;;;;;;4969370;28;20039;-81
2023/10/09 15:50:24;;;;;;;6.25;1.92;;;16.60;99.90;;;;;;4968767;28;20062;-81